sensor_id;sensor_type;location;lat;lon;timestamp;temperature;humidity
20208;DHT22;10263;48.716;8.760;2023-05-10T00:00:03;12.50;99.90
20208;DHT22;10263;48.716;8.760;2023-05-10T00:02:38;12.70;99.90
20208;DHT22;10263;48.716;8.760;2023-05-10T00:05:06;12.70;99.90
20208;DHT22;10263;48.716;8.760;2023-05-10T00:07:33;12.60;99.90
20208;DHT22;10263;48.716;8.760;2023-05-10T00:10:00;12.40;99.90
20208;DHT22;10263;48.716;8.760;2023-05-10T00:14:55;12.40;99.90
20208;DHT22;10263;48.716;8.760;2023-05-10T00:17:22;12.70;99.90
20208;DHT22;10263;48.716;8.760;2023-05-10T00:19:49;12.40;99.90
20208;DHT22;10263;48.716;8.760;2023-05-10T00:24:42;12.40;99.90
20208;DHT22;10263;48.716;8.760;2023-05-10T00:27:09;12.30;99.90
20208;DHT22;10263;48.716;8.760;2023-05-10T00:32:05;12.20;99.90
20208;DHT22;10263;48.716;8.760;2023-05-10T00:34:32;12.10;99.90
20208;DHT22;10263;48.716;8.760;2023-05-10T00:36:58;12.10;99.90
20208;DHT22;10263;48.716;8.760;2023-05-10T00:41:54;12.50;99.90
20208;DHT22;10263;48.716;8.760;2023-05-10T00:44:21;12.10;99.90
20208;DHT22;10263;48.716;8.760;2023-05-10T00:46:49;12.20;99.90
20208;DHT22;10263;48.716;8.760;2023-05-10T00:49:17;12.00;99.90
20208;DHT22;10263;48.716;8.760;2023-05-10T00:54:14;12.10;99.90
20208;DHT22;10263;48.716;8.760;2023-05-10T00:56:41;12.00;99.90
20208;DHT22;10263;48.716;8.760;2023-05-10T01:01:36;11.80;99.90
20208;DHT22;10263;48.716;8.760;2023-05-10T01:04:04;12.00;99.90
20208;DHT22;10263;48.716;8.760;2023-05-10T01:06:32;11.80;99.90
20208;DHT22;10263;48.716;8.760;2023-05-10T01:08:59;12.20;99.90
20208;DHT22;10263;48.716;8.760;2023-05-10T01:11:26;12.10;99.90
20208;DHT22;10263;48.716;8.760;2023-05-10T01:13:56;11.80;99.90
20208;DHT22;10263;48.716;8.760;2023-05-10T01:16:23;11.70;99.90
20208;DHT22;10263;48.716;8.760;2023-05-10T01:18:51;11.90;99.90
20208;DHT22;10263;48.716;8.760;2023-05-10T01:21:26;12.00;99.90
20208;DHT22;10263;48.716;8.760;2023-05-10T01:24:26;12.10;99.90
20208;DHT22;10263;48.716;8.760;2023-05-10T01:27:37;11.90;99.90
20208;DHT22;10263;48.716;8.760;2023-05-10T01:30:19;12.10;99.90
20208;DHT22;10263;48.716;8.760;2023-05-10T01:32:56;11.80;99.90
20208;DHT22;10263;48.716;8.760;2023-05-10T01:35:32;11.80;99.90
20208;DHT22;10263;48.716;8.760;2023-05-10T01:38:06;11.80;99.90
20208;DHT22;10263;48.716;8.760;2023-05-10T01:40:37;11.80;99.90
20208;DHT22;10263;48.716;8.760;2023-05-10T01:43:14;11.80;99.90
20208;DHT22;10263;48.716;8.760;2023-05-10T01:45:50;11.90;99.90
20208;DHT22;10263;48.716;8.760;2023-05-10T01:48:19;11.20;99.90
20208;DHT22;10263;48.716;8.760;2023-05-10T01:50:46;11.60;99.90
20208;DHT22;10263;48.716;8.760;2023-05-10T01:53:18;12.00;99.90
20208;DHT22;10263;48.716;8.760;2023-05-10T01:55:47;11.80;99.90
20208;DHT22;10263;48.716;8.760;2023-05-10T01:58:21;11.80;99.90
20208;DHT22;10263;48.716;8.760;2023-05-10T02:00:50;11.20;99.90
20208;DHT22;10263;48.716;8.760;2023-05-10T02:03:22;11.90;99.90
20208;DHT22;10263;48.716;8.760;2023-05-10T02:05:50;11.80;99.90
20208;DHT22;10263;48.716;8.760;2023-05-10T02:08:21;11.60;99.90
20208;DHT22;10263;48.716;8.760;2023-05-10T02:10:50;11.30;99.90
20208;DHT22;10263;48.716;8.760;2023-05-10T02:13:18;11.60;99.90
20208;DHT22;10263;48.716;8.760;2023-05-10T02:15:48;11.40;99.90
20208;DHT22;10263;48.716;8.760;2023-05-10T02:18:15;11.50;99.90
20208;DHT22;10263;48.716;8.760;2023-05-10T02:20:45;11.40;99.90
20208;DHT22;10263;48.716;8.760;2023-05-10T02:23:15;11.50;99.90
20208;DHT22;10263;48.716;8.760;2023-05-10T02:25:44;11.20;99.90
20208;DHT22;10263;48.716;8.760;2023-05-10T02:28:11;11.20;99.90
20208;DHT22;10263;48.716;8.760;2023-05-10T02:30:39;11.40;99.90
20208;DHT22;10263;48.716;8.760;2023-05-10T02:33:07;11.10;99.90
20208;DHT22;10263;48.716;8.760;2023-05-10T02:35:35;11.10;99.90
20208;DHT22;10263;48.716;8.760;2023-05-10T02:38:04;11.40;99.90
20208;DHT22;10263;48.716;8.760;2023-05-10T02:40:33;11.70;99.90
20208;DHT22;10263;48.716;8.760;2023-05-10T02:43:01;11.70;99.90
20208;DHT22;10263;48.716;8.760;2023-05-10T02:45:31;11.40;99.90
20208;DHT22;10263;48.716;8.760;2023-05-10T02:47:58;11.50;99.90
20208;DHT22;10263;48.716;8.760;2023-05-10T02:50:27;11.50;99.90
20208;DHT22;10263;48.716;8.760;2023-05-10T02:53:00;11.20;99.90
20208;DHT22;10263;48.716;8.760;2023-05-10T02:55:32;11.10;99.90
20208;DHT22;10263;48.716;8.760;2023-05-10T02:58:02;11.40;99.90
20208;DHT22;10263;48.716;8.760;2023-05-10T03:00:29;11.50;99.90
20208;DHT22;10263;48.716;8.760;2023-05-10T03:05:24;11.20;99.90
20208;DHT22;10263;48.716;8.760;2023-05-10T03:07:52;11.50;99.90
20208;DHT22;10263;48.716;8.760;2023-05-10T03:10:19;11.60;99.90
20208;DHT22;10263;48.716;8.760;2023-05-10T03:13:01;11.30;99.90
20208;DHT22;10263;48.716;8.760;2023-05-10T03:15:37;11.40;99.90
20208;DHT22;10263;48.716;8.760;2023-05-10T03:18:12;11.50;99.90
20208;DHT22;10263;48.716;8.760;2023-05-10T03:20:42;11.20;99.90
20208;DHT22;10263;48.716;8.760;2023-05-10T03:23:13;11.40;99.90
20208;DHT22;10263;48.716;8.760;2023-05-10T03:25:43;11.20;99.90
20208;DHT22;10263;48.716;8.760;2023-05-10T03:28:14;11.50;99.90
20208;DHT22;10263;48.716;8.760;2023-05-10T03:30:43;11.30;99.90
20208;DHT22;10263;48.716;8.760;2023-05-10T03:33:11;11.20;99.90
20208;DHT22;10263;48.716;8.760;2023-05-10T03:35:41;11.40;99.90
20208;DHT22;10263;48.716;8.760;2023-05-10T03:38:09;11.60;99.90
20208;DHT22;10263;48.716;8.760;2023-05-10T03:40:37;11.50;99.90
20208;DHT22;10263;48.716;8.760;2023-05-10T03:43:03;11.00;99.90
20208;DHT22;10263;48.716;8.760;2023-05-10T03:45:32;11.00;99.90
20208;DHT22;10263;48.716;8.760;2023-05-10T03:47:59;11.40;99.90
20208;DHT22;10263;48.716;8.760;2023-05-10T03:50:26;11.40;99.90
20208;DHT22;10263;48.716;8.760;2023-05-10T03:52:52;11.00;99.90
20208;DHT22;10263;48.716;8.760;2023-05-10T03:55:19;11.50;99.90
20208;DHT22;10263;48.716;8.760;2023-05-10T04:00:16;11.40;99.90
20208;DHT22;10263;48.716;8.760;2023-05-10T04:02:44;11.00;99.90
20208;DHT22;10263;48.716;8.760;2023-05-10T04:05:16;11.20;99.90
20208;DHT22;10263;48.716;8.760;2023-05-10T04:07:42;11.00;99.90
20208;DHT22;10263;48.716;8.760;2023-05-10T04:10:10;11.20;99.90
20208;DHT22;10263;48.716;8.760;2023-05-10T04:12:37;11.00;99.90
20208;DHT22;10263;48.716;8.760;2023-05-10T04:15:05;11.60;99.90
20208;DHT22;10263;48.716;8.760;2023-05-10T04:17:32;11.10;99.90
20208;DHT22;10263;48.716;8.760;2023-05-10T04:20:00;11.30;99.90
20208;DHT22;10263;48.716;8.760;2023-05-10T04:22:27;11.40;99.90
20208;DHT22;10263;48.716;8.760;2023-05-10T04:24:54;11.50;99.90
20208;DHT22;10263;48.716;8.760;2023-05-10T04:27:21;11.40;99.90
20208;DHT22;10263;48.716;8.760;2023-05-10T04:29:48;11.00;99.90
20208;DHT22;10263;48.716;8.760;2023-05-10T04:32:15;11.30;99.90
20208;DHT22;10263;48.716;8.760;2023-05-10T04:34:42;11.40;99.90
20208;DHT22;10263;48.716;8.760;2023-05-10T04:37:10;11.40;99.90
20208;DHT22;10263;48.716;8.760;2023-05-10T04:42:05;11.50;99.90
20208;DHT22;10263;48.716;8.760;2023-05-10T04:44:32;11.20;99.90
20208;DHT22;10263;48.716;8.760;2023-05-10T04:46:59;11.40;99.90
20208;DHT22;10263;48.716;8.760;2023-05-10T04:49:27;11.10;99.90
20208;DHT22;10263;48.716;8.760;2023-05-10T04:51:55;11.30;99.90
20208;DHT22;10263;48.716;8.760;2023-05-10T04:54:23;11.60;99.90
20208;DHT22;10263;48.716;8.760;2023-05-10T04:56:49;11.20;99.90
20208;DHT22;10263;48.716;8.760;2023-05-10T04:59:16;10.90;99.90
20208;DHT22;10263;48.716;8.760;2023-05-10T05:01:43;11.40;99.90
20208;DHT22;10263;48.716;8.760;2023-05-10T05:04:10;10.90;99.90
20208;DHT22;10263;48.716;8.760;2023-05-10T05:06:37;11.50;99.90
20208;DHT22;10263;48.716;8.760;2023-05-10T05:11:32;11.20;99.90
20208;DHT22;10263;48.716;8.760;2023-05-10T05:13:59;11.60;99.90
20208;DHT22;10263;48.716;8.760;2023-05-10T05:16:25;11.60;99.90
20208;DHT22;10263;48.716;8.760;2023-05-10T05:18:52;11.20;99.90
20208;DHT22;10263;48.716;8.760;2023-05-10T05:21:19;11.20;99.90
20208;DHT22;10263;48.716;8.760;2023-05-10T05:23:47;11.30;99.90
20208;DHT22;10263;48.716;8.760;2023-05-10T05:26:13;11.40;99.90
20208;DHT22;10263;48.716;8.760;2023-05-10T05:28:41;11.30;99.90
20208;DHT22;10263;48.716;8.760;2023-05-10T05:31:08;11.50;99.90
20208;DHT22;10263;48.716;8.760;2023-05-10T05:33:35;11.50;99.90
20208;DHT22;10263;48.716;8.760;2023-05-10T05:36:03;11.60;99.90
20208;DHT22;10263;48.716;8.760;2023-05-10T05:38:30;11.20;99.90
20208;DHT22;10263;48.716;8.760;2023-05-10T05:40:57;11.50;99.90
20208;DHT22;10263;48.716;8.760;2023-05-10T05:43:24;11.30;99.90
20208;DHT22;10263;48.716;8.760;2023-05-10T05:45:53;11.60;99.90
20208;DHT22;10263;48.716;8.760;2023-05-10T05:48:21;11.30;99.90
20208;DHT22;10263;48.716;8.760;2023-05-10T05:50:48;11.70;99.90
20208;DHT22;10263;48.716;8.760;2023-05-10T05:53:14;11.30;99.90
20208;DHT22;10263;48.716;8.760;2023-05-10T05:55:51;11.60;99.90
20208;DHT22;10263;48.716;8.760;2023-05-10T05:58:18;11.60;99.90
20208;DHT22;10263;48.716;8.760;2023-05-10T06:00:45;11.80;99.90
20208;DHT22;10263;48.716;8.760;2023-05-10T06:03:13;11.60;99.90
20208;DHT22;10263;48.716;8.760;2023-05-10T06:05:39;11.50;99.90
20208;DHT22;10263;48.716;8.760;2023-05-10T06:08:06;11.80;99.90
20208;DHT22;10263;48.716;8.760;2023-05-10T06:10:33;11.20;99.90
20208;DHT22;10263;48.716;8.760;2023-05-10T06:15:27;11.70;99.90
20208;DHT22;10263;48.716;8.760;2023-05-10T06:17:54;11.60;99.90
20208;DHT22;10263;48.716;8.760;2023-05-10T06:20:22;9.30;99.90
20208;DHT22;10263;48.716;8.760;2023-05-10T06:22:49;11.70;99.90
20208;DHT22;10263;48.716;8.760;2023-05-10T06:27:43;12.10;99.90
20208;DHT22;10263;48.716;8.760;2023-05-10T06:30:10;11.80;99.90
20208;DHT22;10263;48.716;8.760;2023-05-10T06:32:38;12.30;99.90
20208;DHT22;10263;48.716;8.760;2023-05-10T06:35:06;12.30;99.90
20208;DHT22;10263;48.716;8.760;2023-05-10T06:37:34;12.40;99.90
20208;DHT22;10263;48.716;8.760;2023-05-10T06:40:01;12.40;99.90
20208;DHT22;10263;48.716;8.760;2023-05-10T06:44:56;12.50;99.90
20208;DHT22;10263;48.716;8.760;2023-05-10T06:47:23;12.40;99.90
20208;DHT22;10263;48.716;8.760;2023-05-10T06:49:49;12.80;99.90
20208;DHT22;10263;48.716;8.760;2023-05-10T06:52:16;12.90;99.90
20208;DHT22;10263;48.716;8.760;2023-05-10T06:54:44;12.70;99.90
20208;DHT22;10263;48.716;8.760;2023-05-10T06:59:38;12.80;99.90
20208;DHT22;10263;48.716;8.760;2023-05-10T07:02:05;12.50;99.90
20208;DHT22;10263;48.716;8.760;2023-05-10T07:04:32;12.40;99.90
20208;DHT22;10263;48.716;8.760;2023-05-10T07:06:59;12.50;99.90
20208;DHT22;10263;48.716;8.760;2023-05-10T07:09:26;12.70;99.90
20208;DHT22;10263;48.716;8.760;2023-05-10T07:11:54;13.20;99.90
20208;DHT22;10263;48.716;8.760;2023-05-10T07:14:22;13.10;99.90
20208;DHT22;10263;48.716;8.760;2023-05-10T07:19:16;13.10;99.90
20208;DHT22;10263;48.716;8.760;2023-05-10T07:21:44;12.80;99.90
20208;DHT22;10263;48.716;8.760;2023-05-10T07:24:10;12.70;99.90
20208;DHT22;10263;48.716;8.760;2023-05-10T07:26:37;12.90;99.90
20208;DHT22;10263;48.716;8.760;2023-05-10T07:29:05;13.30;99.90
20208;DHT22;10263;48.716;8.760;2023-05-10T07:31:32;13.50;99.90
20208;DHT22;10263;48.716;8.760;2023-05-10T07:33:59;13.40;99.90
20208;DHT22;10263;48.716;8.760;2023-05-10T07:36:26;13.30;99.90
20208;DHT22;10263;48.716;8.760;2023-05-10T07:41:20;13.80;99.90
20208;DHT22;10263;48.716;8.760;2023-05-10T07:43:47;14.00;99.90
20208;DHT22;10263;48.716;8.760;2023-05-10T07:46:15;13.90;99.90
20208;DHT22;10263;48.716;8.760;2023-05-10T07:48:42;13.80;99.90
20208;DHT22;10263;48.716;8.760;2023-05-10T07:51:09;14.20;99.90
20208;DHT22;10263;48.716;8.760;2023-05-10T07:53:36;14.40;99.90
20208;DHT22;10263;48.716;8.760;2023-05-10T07:56:22;13.90;99.90
20208;DHT22;10263;48.716;8.760;2023-05-10T07:58:51;14.30;99.90
20208;DHT22;10263;48.716;8.760;2023-05-10T08:01:19;14.70;99.90
20208;DHT22;10263;48.716;8.760;2023-05-10T08:03:46;14.90;99.90
20208;DHT22;10263;48.716;8.760;2023-05-10T08:06:14;14.70;99.90
20208;DHT22;10263;48.716;8.760;2023-05-10T08:08:41;14.70;99.90
20208;DHT22;10263;48.716;8.760;2023-05-10T08:11:07;15.20;99.90
20208;DHT22;10263;48.716;8.760;2023-05-10T08:16:01;14.90;99.90
20208;DHT22;10263;48.716;8.760;2023-05-10T08:18:29;14.70;99.90
20208;DHT22;10263;48.716;8.760;2023-05-10T08:20:56;14.60;99.90
20208;DHT22;10263;48.716;8.760;2023-05-10T08:23:23;14.30;99.90
20208;DHT22;10263;48.716;8.760;2023-05-10T08:25:50;14.30;99.90
20208;DHT22;10263;48.716;8.760;2023-05-10T08:28:16;14.40;99.90
20208;DHT22;10263;48.716;8.760;2023-05-10T08:30:43;14.70;99.90
20208;DHT22;10263;48.716;8.760;2023-05-10T08:33:10;15.10;99.90
20208;DHT22;10263;48.716;8.760;2023-05-10T08:35:38;14.70;99.90
20208;DHT22;10263;48.716;8.760;2023-05-10T08:38:05;15.00;99.90
20208;DHT22;10263;48.716;8.760;2023-05-10T08:40:32;14.80;99.90
20208;DHT22;10263;48.716;8.760;2023-05-10T08:43:01;15.00;99.90
20208;DHT22;10263;48.716;8.760;2023-05-10T08:45:33;15.20;99.90
20208;DHT22;10263;48.716;8.760;2023-05-10T08:48:01;15.50;99.90
20208;DHT22;10263;48.716;8.760;2023-05-10T08:50:29;15.20;99.90
20208;DHT22;10263;48.716;8.760;2023-05-10T08:53:00;15.50;99.90
20208;DHT22;10263;48.716;8.760;2023-05-10T08:55:27;15.80;99.90
20208;DHT22;10263;48.716;8.760;2023-05-10T08:57:54;15.70;99.90
20208;DHT22;10263;48.716;8.760;2023-05-10T09:00:21;15.90;99.90
20208;DHT22;10263;48.716;8.760;2023-05-10T09:02:49;15.60;99.90
20208;DHT22;10263;48.716;8.760;2023-05-10T09:05:16;16.20;99.90
20208;DHT22;10263;48.716;8.760;2023-05-10T09:07:43;16.40;99.90
20208;DHT22;10263;48.716;8.760;2023-05-10T09:10:13;16.20;99.90
20208;DHT22;10263;48.716;8.760;2023-05-10T09:12:40;16.10;99.90
20208;DHT22;10263;48.716;8.760;2023-05-10T09:15:09;15.60;99.90
20208;DHT22;10263;48.716;8.760;2023-05-10T09:17:38;15.40;99.90
20208;DHT22;10263;48.716;8.760;2023-05-10T09:20:07;15.20;99.90
20208;DHT22;10263;48.716;8.760;2023-05-10T09:22:34;15.30;99.90
20208;DHT22;10263;48.716;8.760;2023-05-10T09:25:06;15.50;99.90
20208;DHT22;10263;48.716;8.760;2023-05-10T09:27:35;15.60;99.90
20208;DHT22;10263;48.716;8.760;2023-05-10T09:30:01;15.90;99.90
20208;DHT22;10263;48.716;8.760;2023-05-10T09:32:46;16.10;99.90
20208;DHT22;10263;48.716;8.760;2023-05-10T09:35:15;15.90;99.90
20208;DHT22;10263;48.716;8.760;2023-05-10T09:37:45;16.00;99.90
20208;DHT22;10263;48.716;8.760;2023-05-10T09:40:14;16.50;99.90
20208;DHT22;10263;48.716;8.760;2023-05-10T09:42:53;17.10;99.90
20208;DHT22;10263;48.716;8.760;2023-05-10T09:45:20;17.40;99.90
20208;DHT22;10263;48.716;8.760;2023-05-10T09:47:48;17.80;99.90
20208;DHT22;10263;48.716;8.760;2023-05-10T09:50:14;18.00;99.90
20208;DHT22;10263;48.716;8.760;2023-05-10T09:52:49;18.00;99.90
20208;DHT22;10263;48.716;8.760;2023-05-10T09:55:17;17.90;99.90
20208;DHT22;10263;48.716;8.760;2023-05-10T09:57:47;18.00;99.90
20208;DHT22;10263;48.716;8.760;2023-05-10T10:00:18;18.10;99.90
20208;DHT22;10263;48.716;8.760;2023-05-10T10:02:47;18.20;99.90
20208;DHT22;10263;48.716;8.760;2023-05-10T10:05:14;17.40;99.90
20208;DHT22;10263;48.716;8.760;2023-05-10T10:07:41;17.40;99.90
20208;DHT22;10263;48.716;8.760;2023-05-10T10:10:09;17.10;99.90
20208;DHT22;10263;48.716;8.760;2023-05-10T10:12:39;16.60;99.90
20208;DHT22;10263;48.716;8.760;2023-05-10T10:15:08;16.30;99.90
20208;DHT22;10263;48.716;8.760;2023-05-10T10:17:36;15.50;99.90
20208;DHT22;10263;48.716;8.760;2023-05-10T10:20:04;15.20;99.90
20208;DHT22;10263;48.716;8.760;2023-05-10T10:22:31;14.80;99.90
20208;DHT22;10263;48.716;8.760;2023-05-10T10:24:59;14.50;99.90
20208;DHT22;10263;48.716;8.760;2023-05-10T10:27:33;14.40;99.90
20208;DHT22;10263;48.716;8.760;2023-05-10T10:30:10;14.70;99.90
20208;DHT22;10263;48.716;8.760;2023-05-10T10:32:55;14.00;99.90
20208;DHT22;10263;48.716;8.760;2023-05-10T10:35:28;14.50;99.90
20208;DHT22;10263;48.716;8.760;2023-05-10T10:37:55;14.30;99.90
20208;DHT22;10263;48.716;8.760;2023-05-10T10:40:26;14.50;99.90
20208;DHT22;10263;48.716;8.760;2023-05-10T10:42:54;14.30;99.90
20208;DHT22;10263;48.716;8.760;2023-05-10T10:45:23;14.30;99.90
20208;DHT22;10263;48.716;8.760;2023-05-10T10:50:43;14.20;99.90
20208;DHT22;10263;48.716;8.760;2023-05-10T10:53:10;14.20;99.90
20208;DHT22;10263;48.716;8.760;2023-05-10T10:55:46;14.70;99.90
20208;DHT22;10263;48.716;8.760;2023-05-10T10:58:28;14.50;99.90
20208;DHT22;10263;48.716;8.760;2023-05-10T11:01:11;14.60;99.90
20208;DHT22;10263;48.716;8.760;2023-05-10T11:03:38;14.30;99.90
20208;DHT22;10263;48.716;8.760;2023-05-10T11:08:34;14.70;99.90
20208;DHT22;10263;48.716;8.760;2023-05-10T11:11:07;14.30;99.90
20208;DHT22;10263;48.716;8.760;2023-05-10T11:13:38;14.90;99.90
20208;DHT22;10263;48.716;8.760;2023-05-10T11:16:14;15.00;99.90
20208;DHT22;10263;48.716;8.760;2023-05-10T11:18:53;14.70;99.90
20208;DHT22;10263;48.716;8.760;2023-05-10T11:21:20;15.50;99.90
20208;DHT22;10263;48.716;8.760;2023-05-10T11:23:51;15.30;99.90
20208;DHT22;10263;48.716;8.760;2023-05-10T11:26:21;15.40;99.90
20208;DHT22;10263;48.716;8.760;2023-05-10T11:28:52;15.00;99.90
20208;DHT22;10263;48.716;8.760;2023-05-10T11:31:22;14.90;99.90
20208;DHT22;10263;48.716;8.760;2023-05-10T11:33:50;15.00;99.90
20208;DHT22;10263;48.716;8.760;2023-05-10T11:36:18;15.40;99.90
20208;DHT22;10263;48.716;8.760;2023-05-10T11:38:45;15.20;99.90
20208;DHT22;10263;48.716;8.760;2023-05-10T11:41:12;15.10;99.90
20208;DHT22;10263;48.716;8.760;2023-05-10T11:43:42;15.40;99.90
20208;DHT22;10263;48.716;8.760;2023-05-10T11:46:11;15.50;99.90
20208;DHT22;10263;48.716;8.760;2023-05-10T11:48:40;15.60;99.90
20208;DHT22;10263;48.716;8.760;2023-05-10T11:51:07;15.60;99.90
20208;DHT22;10263;48.716;8.760;2023-05-10T11:53:34;15.50;99.90
20208;DHT22;10263;48.716;8.760;2023-05-10T11:56:05;15.60;99.90
20208;DHT22;10263;48.716;8.760;2023-05-10T11:58:32;15.50;99.90
20208;DHT22;10263;48.716;8.760;2023-05-10T12:00:59;16.10;99.90
20208;DHT22;10263;48.716;8.760;2023-05-10T12:03:26;15.70;99.90
20208;DHT22;10263;48.716;8.760;2023-05-10T12:05:56;15.60;99.90
20208;DHT22;10263;48.716;8.760;2023-05-10T12:08:24;15.40;99.90
20208;DHT22;10263;48.716;8.760;2023-05-10T12:10:51;15.80;99.90
20208;DHT22;10263;48.716;8.760;2023-05-10T12:13:19;15.70;99.90
20208;DHT22;10263;48.716;8.760;2023-05-10T12:15:46;15.70;99.90
20208;DHT22;10263;48.716;8.760;2023-05-10T12:18:14;16.00;99.90
20208;DHT22;10263;48.716;8.760;2023-05-10T12:20:41;16.00;99.90
20208;DHT22;10263;48.716;8.760;2023-05-10T12:23:09;15.70;99.90
20208;DHT22;10263;48.716;8.760;2023-05-10T12:25:37;15.70;99.90
20208;DHT22;10263;48.716;8.760;2023-05-10T12:28:07;16.10;99.90
20208;DHT22;10263;48.716;8.760;2023-05-10T12:30:35;16.10;99.90
20208;DHT22;10263;48.716;8.760;2023-05-10T12:33:06;15.90;99.90
20208;DHT22;10263;48.716;8.760;2023-05-10T12:35:38;15.90;99.90
20208;DHT22;10263;48.716;8.760;2023-05-10T12:38:28;16.00;99.90
20208;DHT22;10263;48.716;8.760;2023-05-10T12:40:56;16.10;99.90
20208;DHT22;10263;48.716;8.760;2023-05-10T12:43:23;16.10;99.90
20208;DHT22;10263;48.716;8.760;2023-05-10T12:45:50;16.30;99.90
20208;DHT22;10263;48.716;8.760;2023-05-10T12:48:17;15.90;99.90
20208;DHT22;10263;48.716;8.760;2023-05-10T12:50:44;16.00;99.90
20208;DHT22;10263;48.716;8.760;2023-05-10T12:55:40;16.00;99.90
20208;DHT22;10263;48.716;8.760;2023-05-10T12:58:07;16.60;99.90
20208;DHT22;10263;48.716;8.760;2023-05-10T13:00:34;16.20;99.90
20208;DHT22;10263;48.716;8.760;2023-05-10T13:05:27;16.70;99.90
20208;DHT22;10263;48.716;8.760;2023-05-10T13:12:50;16.90;99.90
20208;DHT22;10263;48.716;8.760;2023-05-10T13:15:17;17.10;99.90
20208;DHT22;10263;48.716;8.760;2023-05-10T13:17:44;16.20;99.90
20208;DHT22;10263;48.716;8.760;2023-05-10T13:20:11;16.20;99.90
20208;DHT22;10263;48.716;8.760;2023-05-10T13:22:38;15.90;99.90
20208;DHT22;10263;48.716;8.760;2023-05-10T13:25:05;16.20;99.90
20208;DHT22;10263;48.716;8.760;2023-05-10T13:30:00;16.50;99.90
20208;DHT22;10263;48.716;8.760;2023-05-10T13:32:28;16.50;99.90
20208;DHT22;10263;48.716;8.760;2023-05-10T13:34:55;17.00;99.90
20208;DHT22;10263;48.716;8.760;2023-05-10T13:37:22;17.00;99.90
20208;DHT22;10263;48.716;8.760;2023-05-10T13:39:49;16.80;99.90
20208;DHT22;10263;48.716;8.760;2023-05-10T13:44:43;17.50;99.90
20208;DHT22;10263;48.716;8.760;2023-05-10T13:47:11;17.10;99.90
20208;DHT22;10263;48.716;8.760;2023-05-10T13:52:22;17.60;99.90
20208;DHT22;10263;48.716;8.760;2023-05-10T13:54:49;17.60;99.90
20208;DHT22;10263;48.716;8.760;2023-05-10T13:57:17;17.90;99.90
20208;DHT22;10263;48.716;8.760;2023-05-10T14:04:39;17.40;99.90
20208;DHT22;10263;48.716;8.760;2023-05-10T14:09:34;17.30;99.90
20208;DHT22;10263;48.716;8.760;2023-05-10T14:12:01;17.10;99.90
20208;DHT22;10263;48.716;8.760;2023-05-10T14:14:27;17.20;99.90
20208;DHT22;10263;48.716;8.760;2023-05-10T14:19:21;16.80;99.90
20208;DHT22;10263;48.716;8.760;2023-05-10T14:26:45;17.30;99.90
20208;DHT22;10263;48.716;8.760;2023-05-10T14:29:12;16.80;99.90
20208;DHT22;10263;48.716;8.760;2023-05-10T14:31:40;16.70;99.90
20208;DHT22;10263;48.716;8.760;2023-05-10T14:34:07;16.70;99.90
20208;DHT22;10263;48.716;8.760;2023-05-10T14:36:34;17.10;99.90
20208;DHT22;10263;48.716;8.760;2023-05-10T14:39:00;17.10;99.90
20208;DHT22;10263;48.716;8.760;2023-05-10T14:41:28;17.00;99.90
20208;DHT22;10263;48.716;8.760;2023-05-10T14:43:57;17.30;99.90
20208;DHT22;10263;48.716;8.760;2023-05-10T14:46:23;16.90;99.90
20208;DHT22;10263;48.716;8.760;2023-05-10T14:48:50;16.50;99.90
20208;DHT22;10263;48.716;8.760;2023-05-10T14:51:17;17.00;99.90
20208;DHT22;10263;48.716;8.760;2023-05-10T14:53:47;17.60;99.90
20208;DHT22;10263;48.716;8.760;2023-05-10T14:56:14;16.90;99.90
20208;DHT22;10263;48.716;8.760;2023-05-10T14:58:40;17.00;99.90
20208;DHT22;10263;48.716;8.760;2023-05-10T15:01:08;17.50;99.90
20208;DHT22;10263;48.716;8.760;2023-05-10T15:06:03;17.30;99.90
20208;DHT22;10263;48.716;8.760;2023-05-10T15:08:30;17.10;99.90
20208;DHT22;10263;48.716;8.760;2023-05-10T15:10:57;16.90;99.90
20208;DHT22;10263;48.716;8.760;2023-05-10T15:13:24;17.10;99.90
20208;DHT22;10263;48.716;8.760;2023-05-10T15:15:51;16.70;99.90
20208;DHT22;10263;48.716;8.760;2023-05-10T15:18:19;16.60;99.90
20208;DHT22;10263;48.716;8.760;2023-05-10T15:20:46;16.90;99.90
20208;DHT22;10263;48.716;8.760;2023-05-10T15:23:13;17.20;99.90
20208;DHT22;10263;48.716;8.760;2023-05-10T15:25:39;16.70;99.90
20208;DHT22;10263;48.716;8.760;2023-05-10T15:28:06;16.90;99.90
20208;DHT22;10263;48.716;8.760;2023-05-10T15:30:33;16.90;99.90
20208;DHT22;10263;48.716;8.760;2023-05-10T15:35:28;16.80;99.90
20208;DHT22;10263;48.716;8.760;2023-05-10T15:37:55;17.00;99.90
20208;DHT22;10263;48.716;8.760;2023-05-10T15:40:22;17.30;99.90
20208;DHT22;10263;48.716;8.760;2023-05-10T15:42:48;17.30;99.90
20208;DHT22;10263;48.716;8.760;2023-05-10T15:45:15;17.20;99.90
20208;DHT22;10263;48.716;8.760;2023-05-10T15:47:42;17.00;99.90
20208;DHT22;10263;48.716;8.760;2023-05-10T15:50:10;16.80;99.90
20208;DHT22;10263;48.716;8.760;2023-05-10T15:52:38;16.40;99.90
20208;DHT22;10263;48.716;8.760;2023-05-10T15:55:06;16.70;99.90
20208;DHT22;10263;48.716;8.760;2023-05-10T15:57:37;16.20;99.90
20208;DHT22;10263;48.716;8.760;2023-05-10T16:00:05;15.90;99.90
20208;DHT22;10263;48.716;8.760;2023-05-10T16:07:32;15.90;99.90
20208;DHT22;10263;48.716;8.760;2023-05-10T16:10:00;16.10;99.90
20208;DHT22;10263;48.716;8.760;2023-05-10T16:14:55;15.30;99.90
20208;DHT22;10263;48.716;8.760;2023-05-10T16:19:49;15.60;99.90
20208;DHT22;10263;48.716;8.760;2023-05-10T16:24:43;15.60;99.90
20208;DHT22;10263;48.716;8.760;2023-05-10T16:27:11;15.60;99.90
20208;DHT22;10263;48.716;8.760;2023-05-10T16:29:38;15.70;99.90
20208;DHT22;10263;48.716;8.760;2023-05-10T16:32:05;14.90;99.90
20208;DHT22;10263;48.716;8.760;2023-05-10T16:34:32;15.80;99.90
20208;DHT22;10263;48.716;8.760;2023-05-10T16:36:58;15.60;99.90
20208;DHT22;10263;48.716;8.760;2023-05-10T16:39:25;15.30;99.90
20208;DHT22;10263;48.716;8.760;2023-05-10T16:44:21;15.50;99.90
20208;DHT22;10263;48.716;8.760;2023-05-10T16:46:47;15.60;99.90
20208;DHT22;10263;48.716;8.760;2023-05-10T16:51:42;15.30;99.90
20208;DHT22;10263;48.716;8.760;2023-05-10T16:54:08;15.60;99.90
20208;DHT22;10263;48.716;8.760;2023-05-10T16:56:35;15.30;99.90
20208;DHT22;10263;48.716;8.760;2023-05-10T17:01:32;15.20;99.90
20208;DHT22;10263;48.716;8.760;2023-05-10T17:06:26;15.40;99.90
20208;DHT22;10263;48.716;8.760;2023-05-10T17:08:53;14.90;99.90
20208;DHT22;10263;48.716;8.760;2023-05-10T17:16:14;14.60;99.90
20208;DHT22;10263;48.716;8.760;2023-05-10T17:18:42;14.70;99.90
20208;DHT22;10263;48.716;8.760;2023-05-10T17:21:10;15.00;99.90
20208;DHT22;10263;48.716;8.760;2023-05-10T17:23:36;14.50;99.90
20208;DHT22;10263;48.716;8.760;2023-05-10T17:26:03;14.60;99.90
20208;DHT22;10263;48.716;8.760;2023-05-10T17:28:30;14.90;99.90